PWSweather.com
Personal Weather Stations
Station Observations
KOHROME3
Rome, OH 44085

Rome, OH 44085

Lat: 41.631, Lon: -80.828

Elevation: 872

Station Type: Ambient Weather WS-2902 Osprey

http://44085weather.com

High Low Average
Temperature 45.1°F7.3°C 16.0°F-8.9°C 34.6°F1.4°C
Dew Point 42.8°F6.0°C -31.1°F-35.1°C 28.7°F-1.8°C
Winds 6.9 mph 11.1 kmh Calm Calm 3.0 mph SW4.8 kmh SW
Wind Gusts 6.9 mph11.1 kmh -- 3.0 mph4.8 kmh
Humidity 100% 10% 83%
Pressure 30.14 in1020.7 mb 29.80 in1009.1 mb -
Precipitation 0.04 in1.0 mm - -
Hour Temp Dew Point Humidity Winds Wind Gusts Pressure Precip Precip Rate Daily Precip Total
12:00 AM 34.7°F1.5°C 4.9°F-15.1°C 28% Calm Calm -- 29.82 in1009.8 mb - 0.00 in0.0 mm 0.00 in0.0 mm
12:10 AM 35.1°F1.7°C 21.3°F-5.9°C 57% Calm Calm -- 29.82 in1009.8 mb - 0.00 in0.0 mm 0.00 in0.0 mm
12:15 AM 35.2°F1.8°C 23.1°F-4.9°C 61% Calm Calm -- 29.82 in1009.8 mb - 0.00 in0.0 mm 0.00 in0.0 mm
12:20 AM 35.4°F1.9°C 22.1°F-5.5°C 58% Calm Calm -- 29.82 in1009.8 mb - 0.00 in0.0 mm 0.00 in0.0 mm
12:25 AM 35.6°F2.0°C 21.0°F-6.1°C 55% Calm Calm -- 29.82 in1009.8 mb - 0.00 in0.0 mm 0.00 in0.0 mm
12:30 AM 35.6°F2.0°C 23.1°F-4.9°C 60% Calm Calm -- 29.82 in1009.8 mb - 0.00 in0.0 mm 0.00 in0.0 mm
12:35 AM 35.2°F1.8°C 19.8°F-6.8°C 53% Calm Calm -- 29.82 in1009.8 mb - 0.00 in0.0 mm 0.00 in0.0 mm
12:40 AM 35.3°F1.8°C 16.1°F-8.8°C 45% Calm Calm -- 29.82 in1009.8 mb - 0.00 in0.0 mm 0.00 in0.0 mm
12:45 AM 35.4°F1.9°C 14.0°F-10.0°C 41% Calm Calm -- 29.82 in1009.8 mb - 0.00 in0.0 mm 0.00 in0.0 mm
12:50 AM 35.6°F2.0°C 24.6°F-4.1°C 64% Calm Calm -- 29.82 in1009.8 mb - 0.00 in0.0 mm 0.00 in0.0 mm
12:55 AM 35.8°F2.1°C 24.8°F-4.0°C 64% Calm Calm -- 29.82 in1009.8 mb - 0.00 in0.0 mm 0.00 in0.0 mm
01:00 AM 35.9°F2.2°C 24.9°F-3.9°C 64% Calm Calm -- 29.82 in1009.8 mb - 0.00 in0.0 mm 0.00 in0.0 mm
01:10 AM 35.8°F2.1°C 17.5°F-8.1°C 47% Calm Calm -- 29.82 in1009.8 mb - 0.00 in0.0 mm 0.00 in0.0 mm
01:15 AM 35.6°F2.0°C 21.0°F-6.1°C 55% Calm Calm -- 29.82 in1009.8 mb - 0.00 in0.0 mm 0.00 in0.0 mm
01:20 AM 35.4°F1.9°C 19.5°F-6.9°C 52% 1.2 mph SSW1.9 kmh SSW 1.2 mph1.9 kmh 29.82 in1009.8 mb - 0.00 in0.0 mm 0.00 in0.0 mm
01:25 AM 35.4°F1.9°C 19.5°F-6.9°C 52% 1.2 mph SSW1.9 kmh SSW 1.2 mph1.9 kmh 29.82 in1009.8 mb - 0.00 in0.0 mm 0.00 in0.0 mm
01:30 AM 35.2°F1.8°C 10.3°F-12.1°C 35% 1.2 mph SSW1.9 kmh SSW 1.2 mph1.9 kmh 29.82 in1009.8 mb - 0.00 in0.0 mm 0.00 in0.0 mm
01:35 AM 35.2°F1.8°C 14.9°F-9.5°C 43% Calm Calm -- 29.82 in1009.8 mb - 0.00 in0.0 mm 0.00 in0.0 mm
01:40 AM 35.8°F2.1°C 16.5°F-8.6°C 45% 1.2 mph SSW1.9 kmh SSW 1.2 mph1.9 kmh 29.82 in1009.8 mb - 0.00 in0.0 mm 0.00 in0.0 mm
01:45 AM 36.1°F2.3°C 30.3°F-0.9°C 79% 1.2 mph SSW1.9 kmh SSW 1.2 mph1.9 kmh 29.82 in1009.8 mb - 0.00 in0.0 mm 0.00 in0.0 mm
01:50 AM 36.9°F2.7°C 31.9°F-0.1°C 82% 1.2 mph SSW1.9 kmh SSW 1.2 mph1.9 kmh 29.82 in1009.8 mb - 0.00 in0.0 mm 0.00 in0.0 mm
01:55 AM 37.0°F2.8°C 30.2°F-1.0°C 76% Calm Calm -- 29.82 in1009.8 mb - 0.00 in0.0 mm 0.00 in0.0 mm
02:00 AM 37.1°F2.8°C 30.9°F-0.6°C 78% Calm Calm 1.2 mph1.9 kmh 29.82 in1009.8 mb - 0.00 in0.0 mm 0.00 in0.0 mm
02:10 AM 37.0°F2.8°C 33.8°F1.0°C 88% 1.2 mph SSW1.9 kmh SSW 1.2 mph1.9 kmh 29.82 in1009.8 mb - 0.00 in0.0 mm 0.00 in0.0 mm
02:15 AM 36.9°F2.7°C 31.9°F-0.1°C 82% Calm Calm -- 29.82 in1009.8 mb - 0.00 in0.0 mm 0.00 in0.0 mm
02:20 AM 36.9°F2.7°C 31.9°F-0.1°C 82% Calm Calm -- 29.82 in1009.8 mb - 0.00 in0.0 mm 0.00 in0.0 mm
02:25 AM 36.9°F2.7°C 30.3°F-0.9°C 77% Calm Calm -- 29.82 in1009.8 mb - 0.00 in0.0 mm 0.00 in0.0 mm
02:30 AM 36.7°F2.6°C 26.7°F-2.9°C 67% Calm Calm -- 29.82 in1009.8 mb - 0.00 in0.0 mm 0.00 in0.0 mm
02:35 AM 36.3°F2.4°C 26.8°F-2.9°C 68% Calm Calm -- 29.82 in1009.8 mb - 0.00 in0.0 mm 0.00 in0.0 mm
02:40 AM 36.3°F2.4°C 26.8°F-2.9°C 68% Calm Calm -- 29.82 in1009.8 mb - 0.00 in0.0 mm 0.00 in0.0 mm
02:45 AM 36.3°F2.4°C 26.8°F-2.9°C 68% Calm Calm -- 29.82 in1009.8 mb - 0.00 in0.0 mm 0.00 in0.0 mm
02:50 AM 36.7°F2.6°C 31.1°F-0.5°C 80% 1.2 mph SSW1.9 kmh SSW 1.2 mph1.9 kmh 29.82 in1009.8 mb - 0.00 in0.0 mm 0.00 in0.0 mm
02:55 AM 36.8°F2.7°C 31.2°F-0.4°C 80% 1.2 mph SSW1.9 kmh SSW 1.2 mph1.9 kmh 29.82 in1009.8 mb - 0.00 in0.0 mm 0.00 in0.0 mm
03:00 AM 36.9°F2.7°C 30.3°F-0.9°C 77% 1.2 mph SSW1.9 kmh SSW 1.2 mph1.9 kmh 29.82 in1009.8 mb - 0.00 in0.0 mm 0.00 in0.0 mm
03:10 AM 36.7°F2.6°C 27.8°F-2.3°C 70% 1.2 mph SSW1.9 kmh SSW 1.2 mph1.9 kmh 29.80 in1009.1 mb - 0.00 in0.0 mm 0.00 in0.0 mm
03:15 AM 36.7°F2.6°C 30.1°F-1.1°C 77% 1.2 mph SSW1.9 kmh SSW 1.2 mph1.9 kmh 29.80 in1009.1 mb - 0.00 in0.0 mm 0.00 in0.0 mm
03:20 AM 36.5°F2.5°C 33.8°F1.0°C 90% 1.2 mph SSW1.9 kmh SSW 1.2 mph1.9 kmh 29.80 in1009.1 mb - 0.00 in0.0 mm 0.00 in0.0 mm
03:25 AM 36.5°F2.5°C 30.3°F-0.9°C 78% 1.2 mph SSW1.9 kmh SSW 1.2 mph1.9 kmh 29.80 in1009.1 mb - 0.00 in0.0 mm 0.00 in0.0 mm
03:30 AM 36.5°F2.5°C 28.3°F-2.1°C 72% 1.2 mph SSW1.9 kmh SSW 1.2 mph1.9 kmh 29.80 in1009.1 mb - 0.00 in0.0 mm 0.00 in0.0 mm
03:35 AM 36.5°F2.5°C 28.3°F-2.1°C 72% 1.2 mph SSW1.9 kmh SSW 1.2 mph1.9 kmh 29.80 in1009.1 mb - 0.00 in0.0 mm 0.00 in0.0 mm
03:40 AM 36.3°F2.4°C 28.5°F-1.9°C 73% 1.2 mph SSW1.9 kmh SSW 1.2 mph1.9 kmh 29.80 in1009.1 mb - 0.00 in0.0 mm 0.00 in0.0 mm
03:45 AM 36.5°F2.5°C 28.3°F-2.1°C 72% 1.2 mph SSW1.9 kmh SSW 1.2 mph1.9 kmh 29.80 in1009.1 mb - 0.00 in0.0 mm 0.00 in0.0 mm
03:50 AM 36.9°F2.7°C 28.7°F-1.8°C 72% 1.2 mph SSW1.9 kmh SSW 1.2 mph1.9 kmh 29.80 in1009.1 mb - 0.00 in0.0 mm 0.00 in0.0 mm
03:55 AM 37.0°F2.8°C 33.8°F1.0°C 88% 1.2 mph SSW1.9 kmh SSW 1.2 mph1.9 kmh 29.80 in1009.1 mb - 0.00 in0.0 mm 0.00 in0.0 mm
04:00 AM 36.7°F2.6°C 28.5°F-1.9°C 72% Calm Calm -- 29.82 in1009.8 mb - 0.00 in0.0 mm 0.00 in0.0 mm
04:10 AM 36.7°F2.6°C 31.1°F-0.5°C 80% 1.2 mph SSW1.9 kmh SSW 1.2 mph1.9 kmh 29.82 in1009.8 mb - 0.00 in0.0 mm 0.00 in0.0 mm
04:15 AM 36.7°F2.6°C 30.1°F-1.1°C 77% 1.2 mph SSW1.9 kmh SSW 1.2 mph1.9 kmh 29.82 in1009.8 mb - 0.00 in0.0 mm 0.00 in0.0 mm
04:20 AM 36.5°F2.5°C 32.1°F0.1°C 84% Calm Calm -- 29.82 in1009.8 mb - 0.00 in0.0 mm 0.00 in0.0 mm
04:25 AM 36.5°F2.5°C 28.3°F-2.1°C 72% 1.2 mph SSW1.9 kmh SSW 1.2 mph1.9 kmh 29.82 in1009.8 mb - 0.00 in0.0 mm 0.00 in0.0 mm
04:30 AM 36.4°F2.4°C 24.6°F-4.1°C 62% 1.2 mph SSW1.9 kmh SSW 1.2 mph1.9 kmh 29.82 in1009.8 mb - 0.00 in0.0 mm 0.00 in0.0 mm
04:35 AM 36.3°F2.4°C 33.7°F0.9°C 90% 1.2 mph SSW1.9 kmh SSW 1.2 mph1.9 kmh 29.82 in1009.8 mb - 0.00 in0.0 mm 0.00 in0.0 mm
04:40 AM 36.7°F2.6°C 32.0°F0.0°C 83% Calm Calm -- 29.82 in1009.8 mb - 0.00 in0.0 mm 0.00 in0.0 mm
04:45 AM 36.5°F2.5°C 33.8°F1.0°C 90% 1.2 mph SSW1.9 kmh SSW 1.2 mph1.9 kmh 29.82 in1009.8 mb - 0.00 in0.0 mm 0.00 in0.0 mm
04:50 AM 36.5°F2.5°C 33.9°F1.1°C 90% 1.2 mph SSW1.9 kmh SSW 1.2 mph1.9 kmh 29.82 in1009.8 mb - 0.00 in0.0 mm 0.00 in0.0 mm
04:55 AM 36.7°F2.6°C 33.7°F0.9°C 89% 1.2 mph SSW1.9 kmh SSW 1.2 mph1.9 kmh 29.82 in1009.8 mb - 0.00 in0.0 mm 0.00 in0.0 mm
05:00 AM 36.9°F2.7°C 33.9°F1.1°C 89% 1.2 mph SSW1.9 kmh SSW 1.2 mph1.9 kmh 29.80 in1009.1 mb - 0.00 in0.0 mm 0.00 in0.0 mm
05:10 AM 37.0°F2.8°C 35.5°F1.9°C 94% 1.2 mph SSW1.9 kmh SSW 1.2 mph1.9 kmh 29.80 in1009.1 mb - 0.00 in0.0 mm 0.00 in0.0 mm
05:15 AM 36.9°F2.7°C 35.6°F2.0°C 95% 1.2 mph SSW1.9 kmh SSW 1.2 mph1.9 kmh 29.80 in1009.1 mb - 0.00 in0.0 mm 0.00 in0.0 mm
05:20 AM 37.2°F2.9°C 35.7°F2.1°C 94% 1.2 mph SSW1.9 kmh SSW 1.2 mph1.9 kmh 29.80 in1009.1 mb - 0.00 in0.0 mm 0.00 in0.0 mm
05:25 AM 36.9°F2.7°C 33.9°F1.1°C 89% 2.3 mph SSW3.7 kmh SSW 2.3 mph3.7 kmh 29.80 in1009.1 mb - 0.00 in0.0 mm 0.00 in0.0 mm
05:30 AM 36.9°F2.7°C 33.9°F1.1°C 89% 2.3 mph SSW3.7 kmh SSW 2.3 mph3.7 kmh 29.80 in1009.1 mb - 0.00 in0.0 mm 0.00 in0.0 mm
05:35 AM 37.2°F2.9°C 34.3°F1.3°C 89% 1.2 mph SSW1.9 kmh SSW 1.2 mph1.9 kmh 29.80 in1009.1 mb - 0.00 in0.0 mm 0.00 in0.0 mm
05:40 AM 37.4°F3.0°C 37.4°F3.0°C 100% 1.2 mph SSW1.9 kmh SSW 1.2 mph1.9 kmh 29.80 in1009.1 mb - 0.00 in0.0 mm 0.00 in0.0 mm
05:45 AM 37.4°F3.0°C 35.8°F2.1°C 94% Calm Calm 1.2 mph1.9 kmh 29.80 in1009.1 mb - 0.00 in0.0 mm 0.00 in0.0 mm
05:50 AM 37.4°F3.0°C 35.6°F2.0°C 93% Calm Calm -- 29.80 in1009.1 mb - 0.00 in0.0 mm 0.00 in0.0 mm
05:55 AM 37.4°F3.0°C 35.6°F2.0°C 93% 1.2 mph SSW1.9 kmh SSW 1.2 mph1.9 kmh 29.80 in1009.1 mb - 0.00 in0.0 mm 0.00 in0.0 mm
06:00 AM 37.2°F2.9°C 35.7°F2.1°C 94% 2.3 mph SSW3.7 kmh SSW 2.3 mph3.7 kmh 29.80 in1009.1 mb - 0.00 in0.0 mm 0.00 in0.0 mm
06:10 AM 37.6°F3.1°C 37.3°F2.9°C 99% 1.2 mph SSW1.9 kmh SSW 1.2 mph1.9 kmh 29.80 in1009.1 mb - 0.00 in0.0 mm 0.00 in0.0 mm
06:15 AM 37.6°F3.1°C 33.8°F1.0°C 86% 1.2 mph S1.9 kmh S 1.2 mph1.9 kmh 29.80 in1009.1 mb - 0.00 in0.0 mm 0.00 in0.0 mm
06:20 AM 37.2°F2.9°C 35.7°F2.1°C 94% 2.3 mph S3.7 kmh S 2.3 mph3.7 kmh 29.80 in1009.1 mb - 0.00 in0.0 mm 0.00 in0.0 mm
06:25 AM 37.2°F2.9°C 35.7°F2.1°C 94% 2.3 mph S3.7 kmh S 2.3 mph3.7 kmh 29.80 in1009.1 mb - 0.00 in0.0 mm 0.00 in0.0 mm
06:30 AM 37.2°F2.9°C 35.7°F2.1°C 94% 2.3 mph S3.7 kmh S 2.3 mph3.7 kmh 29.80 in1009.1 mb - 0.00 in0.0 mm 0.00 in0.0 mm
06:35 AM 37.4°F3.0°C 35.6°F2.0°C 93% 1.2 mph SSW1.9 kmh SSW 1.2 mph1.9 kmh 29.80 in1009.1 mb - 0.00 in0.0 mm 0.00 in0.0 mm
06:40 AM 37.4°F3.0°C 35.6°F2.0°C 93% 1.2 mph SSW1.9 kmh SSW 1.2 mph1.9 kmh 29.80 in1009.1 mb - 0.00 in0.0 mm 0.00 in0.0 mm
06:45 AM 37.3°F2.9°C 35.4°F1.9°C 93% 1.2 mph SSW1.9 kmh SSW 1.2 mph1.9 kmh 29.80 in1009.1 mb - 0.00 in0.0 mm 0.00 in0.0 mm
06:50 AM 37.0°F2.8°C 35.5°F1.9°C 94% 1.2 mph SSW1.9 kmh SSW 1.2 mph1.9 kmh 29.80 in1009.1 mb - 0.00 in0.0 mm 0.00 in0.0 mm
06:55 AM 37.0°F2.8°C 35.5°F1.9°C 94% 1.2 mph SSW1.9 kmh SSW 1.2 mph1.9 kmh 29.80 in1009.1 mb - 0.00 in0.0 mm 0.00 in0.0 mm
07:00 AM 37.2°F2.9°C 35.7°F2.1°C 94% 1.2 mph SSW1.9 kmh SSW 1.2 mph1.9 kmh 29.80 in1009.1 mb - 0.00 in0.0 mm 0.00 in0.0 mm
07:10 AM 36.7°F2.6°C 32.0°F0.0°C 83% Calm Calm -- 29.80 in1009.1 mb - 0.00 in0.0 mm 0.00 in0.0 mm
07:15 AM 37.0°F2.8°C 35.5°F1.9°C 94% 1.2 mph SSW1.9 kmh SSW 1.2 mph1.9 kmh 29.80 in1009.1 mb - 0.00 in0.0 mm 0.00 in0.0 mm
07:20 AM 37.0°F2.8°C 33.8°F1.0°C 88% 1.2 mph SSW1.9 kmh SSW 1.2 mph1.9 kmh 29.80 in1009.1 mb - 0.00 in0.0 mm 0.00 in0.0 mm
07:25 AM 37.0°F2.8°C 33.8°F1.0°C 88% 1.2 mph SSW1.9 kmh SSW 1.2 mph1.9 kmh 29.80 in1009.1 mb - 0.00 in0.0 mm 0.00 in0.0 mm
07:30 AM 37.0°F2.8°C 33.8°F1.0°C 88% 1.2 mph SSW1.9 kmh SSW 1.2 mph1.9 kmh 29.80 in1009.1 mb - 0.00 in0.0 mm 0.00 in0.0 mm
07:35 AM 37.2°F2.9°C 35.7°F2.1°C 94% 1.2 mph S1.9 kmh S 1.2 mph1.9 kmh 29.80 in1009.1 mb - 0.00 in0.0 mm 0.00 in0.0 mm
07:40 AM 37.2°F2.9°C 35.7°F2.1°C 94% 1.2 mph S1.9 kmh S 1.2 mph1.9 kmh 29.80 in1009.1 mb - 0.00 in0.0 mm 0.00 in0.0 mm
07:45 AM 37.2°F2.9°C 35.7°F2.1°C 94% 1.2 mph S1.9 kmh S 1.2 mph1.9 kmh 29.80 in1009.1 mb - 0.00 in0.0 mm 0.00 in0.0 mm
07:50 AM 37.6°F3.1°C 37.3°F2.9°C 99% 3.5 mph SW5.6 kmh SW 3.5 mph5.6 kmh 29.80 in1009.1 mb - 0.00 in0.0 mm 0.00 in0.0 mm
07:55 AM 37.6°F3.1°C 35.5°F1.9°C 92% 2.3 mph SSW3.7 kmh SSW 2.3 mph3.7 kmh 29.80 in1009.1 mb - 0.00 in0.0 mm 0.00 in0.0 mm
08:00 AM 37.7°F3.2°C 35.6°F2.0°C 92% 1.2 mph SSW1.9 kmh SSW 2.3 mph3.7 kmh 29.80 in1009.1 mb - 0.00 in0.0 mm 0.00 in0.0 mm
08:10 AM 37.6°F3.1°C 35.5°F1.9°C 92% 2.3 mph SSW3.7 kmh SSW 2.3 mph3.7 kmh 29.80 in1009.1 mb - 0.00 in0.0 mm 0.00 in0.0 mm
08:15 AM 37.4°F3.0°C 35.6°F2.0°C 93% 1.2 mph SSW1.9 kmh SSW 1.2 mph1.9 kmh 29.80 in1009.1 mb - 0.00 in0.0 mm 0.00 in0.0 mm
08:20 AM 37.4°F3.0°C 35.9°F2.2°C 94% 2.3 mph SSW3.7 kmh SSW 4.6 mph7.4 kmh 29.80 in1009.1 mb - 0.00 in0.0 mm 0.00 in0.0 mm
08:25 AM 37.6°F3.1°C 37.3°F2.9°C 99% 4.6 mph SSW7.4 kmh SSW 4.6 mph7.4 kmh 29.80 in1009.1 mb - 0.00 in0.0 mm 0.00 in0.0 mm
08:30 AM 37.6°F3.1°C 35.5°F1.9°C 92% 1.2 mph SSW1.9 kmh SSW 1.2 mph1.9 kmh 29.80 in1009.1 mb - 0.00 in0.0 mm 0.00 in0.0 mm
08:35 AM 37.5°F3.1°C 36.2°F2.3°C 95% 2.3 mph S3.7 kmh S 3.5 mph5.6 kmh 29.80 in1009.1 mb - 0.00 in0.0 mm 0.00 in0.0 mm
08:40 AM 37.4°F3.0°C 37.4°F3.0°C 100% 3.5 mph S5.6 kmh S 3.5 mph5.6 kmh 29.80 in1009.1 mb - 0.00 in0.0 mm 0.00 in0.0 mm
08:45 AM 37.9°F3.3°C 35.5°F1.9°C 91% 2.3 mph S3.7 kmh S 2.3 mph3.7 kmh 29.80 in1009.1 mb - 0.00 in0.0 mm 0.00 in0.0 mm
08:50 AM 37.9°F3.3°C 35.8°F2.1°C 92% 2.3 mph S3.7 kmh S 3.5 mph5.6 kmh 29.80 in1009.1 mb - 0.00 in0.0 mm 0.00 in0.0 mm
08:55 AM 37.8°F3.2°C 35.6°F2.0°C 92% 3.5 mph SSW5.6 kmh SSW 3.5 mph5.6 kmh 29.80 in1009.1 mb - 0.00 in0.0 mm 0.00 in0.0 mm
09:00 AM 37.8°F3.2°C 35.6°F2.0°C 92% 2.3 mph SSW3.7 kmh SSW 2.3 mph3.7 kmh 29.80 in1009.1 mb - 0.00 in0.0 mm 0.00 in0.0 mm
09:10 AM 37.9°F3.3°C 35.5°F1.9°C 91% 1.2 mph SSW1.9 kmh SSW 1.2 mph1.9 kmh 29.80 in1009.1 mb - 0.00 in0.0 mm 0.00 in0.0 mm
09:15 AM 37.6°F3.1°C 32.0°F0.0°C 80% 4.6 mph SSW7.4 kmh SSW 4.6 mph7.4 kmh 29.80 in1009.1 mb - 0.00 in0.0 mm 0.00 in0.0 mm
09:20 AM 37.9°F3.3°C 32.0°F0.0°C 79% 1.2 mph SSW1.9 kmh SSW 1.2 mph1.9 kmh 29.80 in1009.1 mb - 0.00 in0.0 mm 0.00 in0.0 mm
09:25 AM 37.9°F3.3°C 32.0°F0.0°C 79% 1.2 mph SSW1.9 kmh SSW 1.2 mph1.9 kmh 29.80 in1009.1 mb - 0.00 in0.0 mm 0.00 in0.0 mm
09:30 AM 37.9°F3.3°C 32.0°F0.0°C 79% 1.2 mph SSW1.9 kmh SSW 1.2 mph1.9 kmh 29.80 in1009.1 mb - 0.00 in0.0 mm 0.00 in0.0 mm
09:35 AM 37.9°F3.3°C 30.1°F-1.1°C 73% 3.5 mph SSW5.6 kmh SSW 3.5 mph5.6 kmh 29.80 in1009.1 mb - 0.00 in0.0 mm 0.00 in0.0 mm
09:40 AM 38.1°F3.4°C 29.9°F-1.2°C 72% 2.3 mph SSW3.7 kmh SSW 3.5 mph5.6 kmh 29.80 in1009.1 mb - 0.00 in0.0 mm 0.00 in0.0 mm
09:45 AM 38.3°F3.5°C 30.1°F-1.1°C 72% 1.2 mph SSW1.9 kmh SSW 1.2 mph1.9 kmh 29.80 in1009.1 mb - 0.00 in0.0 mm 0.00 in0.0 mm
09:50 AM 38.3°F3.5°C 30.1°F-1.1°C 72% 3.5 mph SSW5.6 kmh SSW 3.5 mph5.6 kmh 29.80 in1009.1 mb - 0.00 in0.0 mm 0.00 in0.0 mm
09:55 AM 38.3°F3.5°C 28.3°F-2.1°C 67% 2.3 mph S3.7 kmh S 2.3 mph3.7 kmh 29.80 in1009.1 mb - 0.00 in0.0 mm 0.00 in0.0 mm
10:00 AM 38.3°F3.5°C 28.3°F-2.1°C 67% 2.3 mph S3.7 kmh S 2.3 mph3.7 kmh 29.80 in1009.1 mb - 0.00 in0.0 mm 0.00 in0.0 mm
10:10 AM 39.0°F3.9°C 32.1°F0.1°C 76% 1.2 mph S1.9 kmh S 1.2 mph1.9 kmh 29.82 in1009.8 mb - 0.00 in0.0 mm 0.00 in0.0 mm
10:15 AM 39.0°F3.9°C 30.4°F-0.9°C 71% 1.2 mph S1.9 kmh S 1.2 mph1.9 kmh 29.82 in1009.8 mb - 0.00 in0.0 mm 0.00 in0.0 mm
10:20 AM 39.2°F4.0°C 31.9°F-0.1°C 75% 1.2 mph S1.9 kmh S 1.2 mph1.9 kmh 29.82 in1009.8 mb - 0.00 in0.0 mm 0.00 in0.0 mm
10:25 AM 39.4°F4.1°C 33.7°F0.9°C 80% 2.3 mph S3.7 kmh S 2.3 mph3.7 kmh 29.82 in1009.8 mb - 0.00 in0.0 mm 0.00 in0.0 mm
10:30 AM 39.5°F4.2°C 35.1°F1.7°C 84% 2.3 mph S3.7 kmh S 3.5 mph5.6 kmh 29.82 in1009.8 mb - 0.00 in0.0 mm 0.00 in0.0 mm
10:35 AM 39.6°F4.2°C 35.7°F2.1°C 86% 3.5 mph S5.6 kmh S 3.5 mph5.6 kmh 29.82 in1009.8 mb - 0.00 in0.0 mm 0.00 in0.0 mm
10:40 AM 39.6°F4.2°C 35.7°F2.1°C 86% 1.2 mph SW1.9 kmh SW 1.2 mph1.9 kmh 29.82 in1009.8 mb - 0.00 in0.0 mm 0.00 in0.0 mm
10:45 AM 39.7°F4.3°C 37.3°F2.9°C 91% 1.2 mph S1.9 kmh S 1.2 mph1.9 kmh 29.82 in1009.8 mb - 0.00 in0.0 mm 0.00 in0.0 mm
10:50 AM 39.7°F4.3°C 37.3°F2.9°C 91% 1.2 mph S1.9 kmh S 1.2 mph1.9 kmh 29.82 in1009.8 mb - 0.00 in0.0 mm 0.00 in0.0 mm
10:55 AM 40.3°F4.6°C 39.2°F4.0°C 96% 2.3 mph SW3.7 kmh SW 2.3 mph3.7 kmh 29.82 in1009.8 mb - 0.00 in0.0 mm 0.00 in0.0 mm
11:00 AM 40.1°F4.5°C 39.3°F4.1°C 97% 3.5 mph SSW5.6 kmh SSW 3.5 mph5.6 kmh 29.80 in1009.1 mb - 0.00 in0.0 mm 0.00 in0.0 mm
11:10 AM 40.8°F4.9°C 40.0°F4.4°C 97% 3.5 mph SW5.6 kmh SW 3.5 mph5.6 kmh 29.80 in1009.1 mb - 0.00 in0.0 mm 0.00 in0.0 mm
11:15 AM 41.2°F5.1°C 40.9°F4.9°C 99% 4.6 mph SSW7.4 kmh SSW 4.6 mph7.4 kmh 29.80 in1009.1 mb - 0.00 in0.0 mm 0.00 in0.0 mm
11:20 AM 41.4°F5.2°C 40.9°F4.9°C 98% 5.8 mph SW9.3 kmh SW 5.8 mph9.3 kmh 29.80 in1009.1 mb - 0.00 in0.0 mm 0.00 in0.0 mm
11:25 AM 41.5°F5.3°C 41.0°F5.0°C 98% 5.8 mph SW9.3 kmh SW 5.8 mph9.3 kmh 29.80 in1009.1 mb - 0.00 in0.0 mm 0.00 in0.0 mm
11:30 AM 41.4°F5.2°C 41.1°F5.1°C 99% 3.5 mph SW5.6 kmh SW 3.5 mph5.6 kmh 29.80 in1009.1 mb - 0.00 in0.0 mm 0.00 in0.0 mm
11:35 AM 41.7°F5.4°C 40.9°F4.9°C 97% 3.5 mph SW5.6 kmh SW 3.5 mph5.6 kmh 29.80 in1009.1 mb - 0.00 in0.0 mm 0.00 in0.0 mm
11:40 AM 41.7°F5.4°C 40.9°F4.9°C 97% 3.5 mph SW5.6 kmh SW 3.5 mph5.6 kmh 29.80 in1009.1 mb - 0.00 in0.0 mm 0.00 in0.0 mm
11:45 AM 42.1°F5.6°C 41.0°F5.0°C 96% 4.6 mph SW7.4 kmh SW 4.6 mph7.4 kmh 29.80 in1009.1 mb - 0.00 in0.0 mm 0.00 in0.0 mm
11:50 AM 41.7°F5.4°C 40.9°F4.9°C 97% 4.6 mph WSW7.4 kmh WSW 4.6 mph7.4 kmh 29.80 in1009.1 mb - 0.00 in0.0 mm 0.00 in0.0 mm
11:55 AM 41.8°F5.4°C 41.0°F5.0°C 97% 4.6 mph WSW7.4 kmh WSW 4.6 mph7.4 kmh 29.80 in1009.1 mb - 0.00 in0.0 mm 0.00 in0.0 mm
12:00 PM 41.9°F5.5°C 41.1°F5.1°C 97% 3.5 mph WSW5.6 kmh WSW 3.5 mph5.6 kmh 29.80 in1009.1 mb - 0.00 in0.0 mm 0.00 in0.0 mm
12:10 PM 42.4°F5.8°C 41.6°F5.3°C 97% 2.3 mph WSW3.7 kmh WSW 2.3 mph3.7 kmh 29.82 in1009.8 mb - 0.00 in0.0 mm 0.00 in0.0 mm
12:15 PM 42.4°F5.8°C 41.6°F5.3°C 97% 2.3 mph SW3.7 kmh SW 2.3 mph3.7 kmh 29.82 in1009.8 mb - 0.00 in0.0 mm 0.00 in0.0 mm
12:20 PM 42.4°F5.8°C 41.6°F5.3°C 97% 2.3 mph WSW3.7 kmh WSW 2.3 mph3.7 kmh 29.82 in1009.8 mb - 0.00 in0.0 mm 0.00 in0.0 mm
12:25 PM 42.6°F5.9°C 41.8°F5.4°C 97% 2.3 mph SW3.7 kmh SW 2.3 mph3.7 kmh 29.82 in1009.8 mb - 0.00 in0.0 mm 0.00 in0.0 mm
12:30 PM 42.6°F5.9°C 41.8°F5.4°C 97% 2.3 mph SW3.7 kmh SW 2.3 mph3.7 kmh 29.82 in1009.8 mb - 0.00 in0.0 mm 0.00 in0.0 mm
12:35 PM 42.8°F6.0°C 42.8°F6.0°C 100% 2.3 mph SW3.7 kmh SW 2.3 mph3.7 kmh 29.82 in1009.8 mb - 0.00 in0.0 mm 0.00 in0.0 mm
12:40 PM 42.8°F6.0°C 40.9°F4.9°C 93% 3.5 mph WSW5.6 kmh WSW 3.5 mph5.6 kmh 29.82 in1009.8 mb - 0.00 in0.0 mm 0.00 in0.0 mm
12:45 PM 42.9°F6.1°C 41.0°F5.0°C 93% 3.5 mph WSW5.6 kmh WSW 3.5 mph5.6 kmh 29.82 in1009.8 mb - 0.00 in0.0 mm 0.00 in0.0 mm
12:50 PM 43.0°F6.1°C 41.1°F5.1°C 93% 3.5 mph WSW5.6 kmh WSW 3.5 mph5.6 kmh 29.82 in1009.8 mb - 0.00 in0.0 mm 0.00 in0.0 mm
12:55 PM 43.2°F6.2°C 41.0°F5.0°C 92% 1.2 mph WSW1.9 kmh WSW 1.2 mph1.9 kmh 29.82 in1009.8 mb - 0.00 in0.0 mm 0.00 in0.0 mm
01:00 PM 43.7°F6.5°C 39.2°F4.0°C 84% 2.3 mph WSW3.7 kmh WSW 2.3 mph3.7 kmh 29.80 in1009.1 mb - 0.00 in0.0 mm 0.00 in0.0 mm
01:10 PM 45.1°F7.3°C 39.3°F4.1°C 80% 3.5 mph WSW5.6 kmh WSW 3.5 mph5.6 kmh 29.80 in1009.1 mb - 0.00 in0.0 mm 0.00 in0.0 mm
01:15 PM 43.5°F6.4°C 39.3°F4.1°C 85% 4.6 mph WSW7.4 kmh WSW 4.6 mph7.4 kmh 29.80 in1009.1 mb - 0.00 in0.0 mm 0.00 in0.0 mm
01:20 PM 43.5°F6.4°C 39.3°F4.1°C 85% 4.6 mph WSW7.4 kmh WSW 4.6 mph7.4 kmh 29.80 in1009.1 mb - 0.00 in0.0 mm 0.00 in0.0 mm
01:25 PM 43.7°F6.5°C 37.3°F2.9°C 78% 2.3 mph WSW3.7 kmh WSW 2.3 mph3.7 kmh 29.80 in1009.1 mb - 0.00 in0.0 mm 0.00 in0.0 mm
01:30 PM 44.2°F6.8°C 37.5°F3.1°C 77% 3.5 mph WSW5.6 kmh WSW 3.5 mph5.6 kmh 29.80 in1009.1 mb - 0.00 in0.0 mm 0.00 in0.0 mm
01:35 PM 43.9°F6.6°C 36.9°F2.7°C 76% 3.5 mph WSW5.6 kmh WSW 3.5 mph5.6 kmh 29.80 in1009.1 mb - 0.00 in0.0 mm 0.00 in0.0 mm
01:40 PM 43.3°F6.3°C 35.6°F2.0°C 74% 3.5 mph W5.6 kmh W 3.5 mph5.6 kmh 29.80 in1009.1 mb - 0.00 in0.0 mm 0.00 in0.0 mm
01:45 PM 43.3°F6.3°C 35.6°F2.0°C 74% 2.3 mph WSW3.7 kmh WSW 2.3 mph3.7 kmh 29.80 in1009.1 mb - 0.00 in0.0 mm 0.00 in0.0 mm
01:50 PM 43.3°F6.3°C 35.6°F2.0°C 74% 2.3 mph WSW3.7 kmh WSW 2.3 mph3.7 kmh 29.80 in1009.1 mb - 0.00 in0.0 mm 0.00 in0.0 mm
01:55 PM 43.3°F6.3°C 35.6°F2.0°C 74% 2.3 mph WSW3.7 kmh WSW 2.3 mph3.7 kmh 29.80 in1009.1 mb - 0.00 in0.0 mm 0.00 in0.0 mm
02:00 PM 43.3°F6.3°C 33.8°F1.0°C 69% 5.8 mph SW9.3 kmh SW 5.8 mph9.3 kmh 29.80 in1009.1 mb - 0.00 in0.0 mm 0.00 in0.0 mm
02:10 PM 43.2°F6.2°C 33.7°F0.9°C 69% 4.6 mph WSW7.4 kmh WSW 4.6 mph7.4 kmh 29.82 in1009.8 mb - 0.00 in0.0 mm 0.00 in0.0 mm
02:15 PM 43.2°F6.2°C 33.7°F0.9°C 69% 3.5 mph W5.6 kmh W 3.5 mph5.6 kmh 29.82 in1009.8 mb - 0.00 in0.0 mm 0.00 in0.0 mm
02:20 PM 43.0°F6.1°C 33.9°F1.1°C 70% 3.5 mph SW5.6 kmh SW 3.5 mph5.6 kmh 29.82 in1009.8 mb - 0.00 in0.0 mm 0.00 in0.0 mm
02:25 PM 43.0°F6.1°C 33.9°F1.1°C 70% 3.5 mph WSW5.6 kmh WSW 3.5 mph5.6 kmh 29.82 in1009.8 mb - 0.00 in0.0 mm 0.00 in0.0 mm
02:30 PM 43.0°F6.1°C 33.9°F1.1°C 70% 3.5 mph W5.6 kmh W 3.5 mph5.6 kmh 29.82 in1009.8 mb - 0.00 in0.0 mm 0.00 in0.0 mm
02:35 PM 42.8°F6.0°C 33.7°F0.9°C 70% 3.5 mph W5.6 kmh W 3.5 mph5.6 kmh 29.82 in1009.8 mb - 0.00 in0.0 mm 0.00 in0.0 mm
02:40 PM 42.6°F5.9°C 33.5°F0.8°C 70% 4.6 mph W7.4 kmh W 5.8 mph9.3 kmh 29.82 in1009.8 mb - 0.00 in0.0 mm 0.00 in0.0 mm
02:45 PM 42.4°F5.8°C 37.3°F2.9°C 82% 5.8 mph WNW9.3 kmh WNW 5.8 mph9.3 kmh 29.82 in1009.8 mb - 0.00 in0.0 mm 0.00 in0.0 mm
02:50 PM 41.9°F5.5°C 39.2°F4.0°C 90% 3.5 mph NW5.6 kmh NW 3.5 mph5.6 kmh 29.82 in1009.8 mb - 0.00 in0.0 mm 0.00 in0.0 mm
02:55 PM 40.9°F4.9°C 38.1°F3.4°C 90% 3.5 mph W5.6 kmh W 3.5 mph5.6 kmh 29.82 in1009.8 mb - 0.00 in0.0 mm 0.00 in0.0 mm
03:00 PM 40.6°F4.8°C 37.9°F3.3°C 90% 3.5 mph WSW5.6 kmh WSW 3.5 mph5.6 kmh 29.82 in1009.8 mb - 0.00 in0.0 mm 0.00 in0.0 mm
03:10 PM 39.7°F4.3°C 39.2°F4.0°C 98% 3.5 mph NNW5.6 kmh NNW 3.5 mph5.6 kmh 29.82 in1009.8 mb - 0.00 in0.0 mm 0.00 in0.0 mm
03:15 PM 39.7°F4.3°C 39.2°F4.0°C 98% 3.5 mph NNW5.6 kmh NNW 3.5 mph5.6 kmh 29.82 in1009.8 mb - 0.00 in0.0 mm 0.00 in0.0 mm
03:20 PM 39.4°F4.1°C 39.1°F3.9°C 99% 3.5 mph NW5.6 kmh NW 3.5 mph5.6 kmh 29.82 in1009.8 mb - 0.00 in0.0 mm 0.00 in0.0 mm
03:25 PM 38.8°F3.8°C 38.6°F3.7°C 99% 4.6 mph NW7.4 kmh NW 4.6 mph7.4 kmh 29.82 in1009.8 mb - 0.00 in0.0 mm 0.00 in0.0 mm
03:30 PM 38.8°F3.8°C 38.3°F3.5°C 98% 4.6 mph WNW7.4 kmh WNW 4.6 mph7.4 kmh 29.82 in1009.8 mb - 0.00 in0.0 mm 0.00 in0.0 mm
03:35 PM 38.7°F3.7°C 37.4°F3.0°C 95% 3.5 mph W5.6 kmh W 3.5 mph5.6 kmh 29.82 in1009.8 mb - 0.00 in0.0 mm 0.00 in0.0 mm
03:40 PM 38.5°F3.6°C 37.4°F3.0°C 96% 2.3 mph NW3.7 kmh NW 2.3 mph3.7 kmh 29.82 in1009.8 mb - 0.00 in0.0 mm 0.00 in0.0 mm
03:45 PM 38.4°F3.6°C 37.6°F3.1°C 97% 2.3 mph W3.7 kmh W 2.3 mph3.7 kmh 29.82 in1009.8 mb - 0.00 in0.0 mm 0.00 in0.0 mm
03:50 PM 38.3°F3.5°C 37.5°F3.1°C 97% 2.3 mph W3.7 kmh W 2.3 mph3.7 kmh 29.82 in1009.8 mb - 0.00 in0.0 mm 0.00 in0.0 mm
03:55 PM 37.8°F3.2°C 37.5°F3.1°C 99% 5.8 mph NW9.3 kmh NW 5.8 mph9.3 kmh 29.82 in1009.8 mb - 0.00 in0.0 mm 0.00 in0.0 mm
04:00 PM 37.6°F3.1°C 37.3°F2.9°C 99% 6.9 mph WNW11.1 kmh WNW 6.9 mph11.1 kmh 29.86 in1011.2 mb - 0.00 in0.0 mm 0.00 in0.0 mm
04:10 PM 37.6°F3.1°C 37.3°F2.9°C 99% 3.5 mph NW5.6 kmh NW 3.5 mph5.6 kmh 29.86 in1011.2 mb - 0.00 in0.0 mm 0.00 in0.0 mm
04:15 PM 37.6°F3.1°C 37.3°F2.9°C 99% 2.3 mph W3.7 kmh W 2.3 mph3.7 kmh 29.86 in1011.2 mb - 0.00 in0.0 mm 0.00 in0.0 mm
04:20 PM 37.6°F3.1°C 37.3°F2.9°C 99% 2.3 mph W3.7 kmh W 2.3 mph3.7 kmh 29.86 in1011.2 mb - 0.00 in0.0 mm 0.00 in0.0 mm
04:25 PM 37.2°F2.9°C 37.0°F2.8°C 99% 5.8 mph N9.3 kmh N 5.8 mph9.3 kmh 29.86 in1011.2 mb - 0.00 in0.0 mm 0.00 in0.0 mm
04:30 PM 36.9°F2.7°C 35.6°F2.0°C 95% 4.6 mph N7.4 kmh N 4.6 mph7.4 kmh 29.86 in1011.2 mb - 0.00 in0.0 mm 0.00 in0.0 mm
04:35 PM 36.8°F2.7°C 35.5°F1.9°C 95% 4.6 mph NNW7.4 kmh NNW 4.6 mph7.4 kmh 29.86 in1011.2 mb - 0.00 in0.0 mm 0.00 in0.0 mm
04:40 PM 36.7°F2.6°C 35.6°F2.0°C 96% 3.5 mph WNW5.6 kmh WNW 3.5 mph5.6 kmh 29.86 in1011.2 mb - 0.00 in0.0 mm 0.00 in0.0 mm
04:45 PM 36.3°F2.4°C 35.6°F2.0°C 97% 1.2 mph WNW1.9 kmh WNW 1.2 mph1.9 kmh 29.86 in1011.2 mb - 0.00 in0.0 mm 0.00 in0.0 mm
04:50 PM 36.2°F2.3°C 35.7°F2.1°C 98% 3.5 mph W5.6 kmh W 4.6 mph7.4 kmh 29.86 in1011.2 mb - 0.00 in0.0 mm 0.00 in0.0 mm
04:55 PM 36.1°F2.3°C 35.6°F2.0°C 98% 4.6 mph W7.4 kmh W 4.6 mph7.4 kmh 29.86 in1011.2 mb - 0.00 in0.0 mm 0.00 in0.0 mm
05:00 PM 36.0°F2.2°C 35.7°F2.1°C 99% 5.8 mph SW9.3 kmh SW 5.8 mph9.3 kmh 29.86 in1011.2 mb - 0.00 in0.0 mm 0.00 in0.0 mm
05:10 PM 36.0°F2.2°C 35.7°F2.1°C 99% 3.5 mph NW5.6 kmh NW 3.5 mph5.6 kmh 29.86 in1011.2 mb - 0.00 in0.0 mm 0.00 in0.0 mm
05:15 PM 35.8°F2.1°C 35.5°F1.9°C 99% 3.5 mph WNW5.6 kmh WNW 3.5 mph5.6 kmh 29.86 in1011.2 mb - 0.00 in0.0 mm 0.00 in0.0 mm
05:20 PM 35.8°F2.1°C 35.5°F1.9°C 99% 2.3 mph NW3.7 kmh NW 2.3 mph3.7 kmh 29.86 in1011.2 mb - 0.00 in0.0 mm 0.00 in0.0 mm
05:25 PM 35.8°F2.1°C 35.5°F1.9°C 99% 2.3 mph NW3.7 kmh NW 2.3 mph3.7 kmh 29.86 in1011.2 mb - 0.00 in0.0 mm 0.00 in0.0 mm
05:30 PM 35.6°F2.0°C 35.6°F2.0°C 100% 2.3 mph NW3.7 kmh NW 2.3 mph3.7 kmh 29.86 in1011.2 mb - 0.00 in0.0 mm 0.00 in0.0 mm
05:35 PM 35.6°F2.0°C 35.6°F2.0°C 100% 1.2 mph WNW1.9 kmh WNW 1.2 mph1.9 kmh 29.86 in1011.2 mb - 0.00 in0.0 mm 0.00 in0.0 mm
05:40 PM 35.6°F2.0°C 35.6°F2.0°C 100% 2.3 mph W3.7 kmh W 4.6 mph7.4 kmh 29.86 in1011.2 mb - 0.00 in0.0 mm 0.00 in0.0 mm
05:45 PM 35.6°F2.0°C 35.6°F2.0°C 100% 4.6 mph W7.4 kmh W 4.6 mph7.4 kmh 29.86 in1011.2 mb - 0.00 in0.0 mm 0.00 in0.0 mm
05:50 PM 35.4°F1.9°C 35.4°F1.9°C 100% 5.8 mph W9.3 kmh W 5.8 mph9.3 kmh 29.86 in1011.2 mb - 0.00 in0.0 mm 0.00 in0.0 mm
05:55 PM 35.3°F1.8°C 35.3°F1.8°C 100% 5.8 mph W9.3 kmh W 5.8 mph9.3 kmh 29.86 in1011.2 mb - 0.00 in0.0 mm 0.00 in0.0 mm
06:00 PM 35.2°F1.8°C 35.2°F1.8°C 100% 5.8 mph W9.3 kmh W 5.8 mph9.3 kmh 29.86 in1011.2 mb - 0.00 in0.0 mm 0.00 in0.0 mm
06:10 PM 34.0°F1.1°C 33.7°F0.9°C 99% 2.3 mph NW3.7 kmh NW 2.3 mph3.7 kmh 29.88 in1011.9 mb - 0.00 in0.0 mm 0.00 in0.0 mm
06:15 PM 34.0°F1.1°C 33.7°F0.9°C 99% 2.3 mph NW3.7 kmh NW 2.3 mph3.7 kmh 29.88 in1011.9 mb - 0.00 in0.0 mm 0.00 in0.0 mm
06:20 PM 33.4°F0.8°C 33.2°F0.7°C 99% 5.8 mph NW9.3 kmh NW 5.8 mph9.3 kmh 29.88 in1011.9 mb - 0.00 in0.0 mm 0.00 in0.0 mm
06:25 PM 33.3°F0.7°C 33.0°F0.6°C 99% 6.9 mph WNW11.1 kmh WNW 6.9 mph11.1 kmh 29.88 in1011.9 mb - 0.00 in0.0 mm 0.00 in0.0 mm
06:30 PM 33.3°F0.7°C 33.0°F0.6°C 99% 6.9 mph WNW11.1 kmh WNW 6.9 mph11.1 kmh 29.88 in1011.9 mb - 0.00 in0.0 mm 0.00 in0.0 mm
06:35 PM 32.9°F0.5°C 31.9°F-0.1°C 96% 5.8 mph WNW9.3 kmh WNW 5.8 mph9.3 kmh 29.88 in1011.9 mb - 0.00 in0.0 mm 0.00 in0.0 mm
06:40 PM 32.5°F0.3°C 32.0°F0.0°C 98% 3.5 mph N5.6 kmh N 3.5 mph5.6 kmh 29.88 in1011.9 mb - 0.00 in0.0 mm 0.00 in0.0 mm
06:45 PM 32.4°F0.2°C 32.2°F0.1°C 99% 4.6 mph NW7.4 kmh NW 5.8 mph9.3 kmh 29.88 in1011.9 mb - 0.00 in0.0 mm 0.00 in0.0 mm
06:50 PM 32.4°F0.2°C 32.1°F0.1°C 99% 5.8 mph WNW9.3 kmh WNW 5.8 mph9.3 kmh 29.88 in1011.9 mb - 0.00 in0.0 mm 0.00 in0.0 mm
06:55 PM 32.0°F0.0°C 32.0°F0.0°C 100% 3.5 mph W5.6 kmh W 3.5 mph5.6 kmh 29.88 in1011.9 mb - 0.00 in0.0 mm 0.00 in0.0 mm
07:00 PM 31.8°F-0.1°C 31.8°F-0.1°C 100% 4.6 mph NW7.4 kmh NW 4.6 mph7.4 kmh 29.94 in1013.9 mb - 0.00 in0.0 mm 0.00 in0.0 mm
07:10 PM 31.6°F-0.2°C 31.6°F-0.2°C 100% 5.8 mph W9.3 kmh W 5.8 mph9.3 kmh 29.94 in1013.9 mb - 0.00 in0.0 mm 0.00 in0.0 mm
07:15 PM 31.5°F-0.3°C 28.3°F-2.1°C 88% 5.8 mph WSW9.3 kmh WSW 5.8 mph9.3 kmh 29.91 in1012.9 mb - 0.00 in0.0 mm 0.00 in0.0 mm
07:20 PM 31.5°F-0.3°C 28.3°F-2.1°C 88% 3.5 mph W5.6 kmh W 3.5 mph5.6 kmh 29.91 in1012.9 mb - 0.00 in0.0 mm 0.00 in0.0 mm
07:25 PM 31.5°F-0.3°C 28.3°F-2.1°C 88% 3.5 mph W5.6 kmh W 3.5 mph5.6 kmh 29.91 in1012.9 mb - 0.00 in0.0 mm 0.00 in0.0 mm
07:30 PM 31.3°F-0.4°C 28.4°F-2.0°C 89% 4.6 mph NW7.4 kmh NW 4.6 mph7.4 kmh 29.91 in1012.9 mb - 0.00 in0.0 mm 0.00 in0.0 mm
07:35 PM 31.3°F-0.4°C 28.4°F-2.0°C 89% 5.8 mph W9.3 kmh W 5.8 mph9.3 kmh 29.91 in1012.9 mb - 0.00 in0.0 mm 0.00 in0.0 mm
07:40 PM 31.2°F-0.4°C 28.9°F-1.7°C 91% 5.8 mph W9.3 kmh W 5.8 mph9.3 kmh 29.92 in1013.2 mb - 0.00 in0.0 mm 0.00 in0.0 mm
07:45 PM 31.1°F-0.5°C 30.1°F-1.1°C 96% 3.5 mph NW5.6 kmh NW 3.5 mph5.6 kmh 29.94 in1013.9 mb - 0.00 in0.0 mm 0.00 in0.0 mm
07:50 PM 30.2°F-1.0°C 21.2°F-6.0°C 69% 4.6 mph N7.4 kmh N 4.6 mph7.4 kmh 29.94 in1013.9 mb - 0.00 in0.0 mm 0.00 in0.0 mm
07:55 PM 29.1°F-1.6°C 21.2°F-6.0°C 72% 2.3 mph N3.7 kmh N 2.3 mph3.7 kmh 29.94 in1013.9 mb - 0.00 in0.0 mm 0.00 in0.0 mm
08:00 PM 29.1°F-1.6°C 28.4°F-2.0°C 97% 2.3 mph N3.7 kmh N 2.3 mph3.7 kmh 29.94 in1013.9 mb - 0.00 in0.0 mm 0.00 in0.0 mm
08:10 PM 28.4°F-2.0°C 26.6°F-3.0°C 93% 3.5 mph NW5.6 kmh NW 3.5 mph5.6 kmh 30.00 in1015.9 mb - 0.00 in0.0 mm 0.00 in0.0 mm
08:15 PM 28.4°F-2.0°C 26.6°F-3.0°C 93% 2.3 mph NNW3.7 kmh NNW 2.3 mph3.7 kmh 30.00 in1015.9 mb - 0.00 in0.0 mm 0.00 in0.0 mm
08:20 PM 28.4°F-2.0°C 26.6°F-3.0°C 93% 2.3 mph NNW3.7 kmh NNW 2.3 mph3.7 kmh 30.00 in1015.9 mb - 0.00 in0.0 mm 0.00 in0.0 mm
08:25 PM 28.2°F-2.1°C 24.8°F-4.0°C 87% 3.5 mph NNE5.6 kmh NNE 3.5 mph5.6 kmh 30.00 in1015.9 mb - 0.00 in0.0 mm 0.00 in0.0 mm
08:30 PM 27.7°F-2.4°C 24.9°F-3.9°C 89% 5.8 mph NW9.3 kmh NW 5.8 mph9.3 kmh 30.00 in1015.9 mb - 0.00 in0.0 mm 0.00 in0.0 mm
08:35 PM 27.3°F-2.6°C 24.7°F-4.1°C 90% 4.6 mph N7.4 kmh N 5.8 mph9.3 kmh 30.00 in1015.9 mb - 0.00 in0.0 mm 0.00 in0.0 mm
08:40 PM 27.1°F-2.7°C 24.9°F-3.9°C 91% 3.5 mph N5.6 kmh N 3.5 mph5.6 kmh 30.00 in1015.9 mb - 0.00 in0.0 mm 0.00 in0.0 mm
08:45 PM 26.8°F-2.9°C 22.9°F-5.1°C 85% 4.6 mph N7.4 kmh N 4.6 mph7.4 kmh 30.00 in1015.9 mb - 0.00 in0.0 mm 0.00 in0.0 mm
08:50 PM 26.2°F-3.2°C 24.7°F-4.1°C 94% 4.6 mph NNW7.4 kmh NNW 4.6 mph7.4 kmh 30.00 in1015.9 mb - 0.00 in0.0 mm 0.00 in0.0 mm
08:55 PM 26.1°F-3.3°C 24.8°F-4.0°C 95% 4.6 mph NNW7.4 kmh NNW 4.6 mph7.4 kmh 30.00 in1015.9 mb - 0.00 in0.0 mm 0.00 in0.0 mm
09:00 PM 25.9°F-3.4°C 24.9°F-3.9°C 96% 3.5 mph NNW5.6 kmh NNW 3.5 mph5.6 kmh 30.00 in1015.9 mb - 0.00 in0.0 mm 0.00 in0.0 mm
09:10 PM 25.2°F-3.8°C 22.9°F-5.1°C 91% 5.8 mph N9.3 kmh N 5.8 mph9.3 kmh 30.00 in1015.9 mb - 0.00 in0.0 mm 0.00 in0.0 mm
09:15 PM 25.1°F-3.8°C 22.6°F-5.2°C 90% 4.6 mph N7.4 kmh N 5.8 mph9.3 kmh 30.00 in1015.9 mb - 0.00 in0.0 mm 0.00 in0.0 mm
09:20 PM 24.8°F-4.0°C 21.2°F-6.0°C 86% 2.3 mph N3.7 kmh N 2.3 mph3.7 kmh 30.00 in1015.9 mb - 0.00 in0.0 mm 0.00 in0.0 mm
09:25 PM 24.6°F-4.1°C 22.9°F-5.1°C 93% 4.6 mph NW7.4 kmh NW 4.6 mph7.4 kmh 30.00 in1015.9 mb - 0.00 in0.0 mm 0.00 in0.0 mm
09:30 PM 23.9°F-4.5°C 21.1°F-6.1°C 89% 3.5 mph NE5.6 kmh NE 3.5 mph5.6 kmh 30.00 in1015.9 mb - 0.00 in0.0 mm 0.00 in0.0 mm
09:35 PM 23.9°F-4.5°C 21.1°F-6.1°C 89% 3.5 mph NE5.6 kmh NE 3.5 mph5.6 kmh 30.00 in1015.9 mb - 0.00 in0.0 mm 0.00 in0.0 mm
09:40 PM 23.5°F-4.7°C 21.3°F-5.9°C 91% 5.8 mph N9.3 kmh N 5.8 mph9.3 kmh 30.00 in1015.9 mb - 0.00 in0.0 mm 0.00 in0.0 mm
09:45 PM 23.4°F-4.8°C 21.1°F-6.1°C 91% 6.9 mph NW11.1 kmh NW 6.9 mph11.1 kmh 30.00 in1015.9 mb - 0.00 in0.0 mm 0.00 in0.0 mm
09:50 PM 23.1°F-4.9°C 21.4°F-5.9°C 93% 5.8 mph NW9.3 kmh NW 6.9 mph11.1 kmh 30.00 in1015.9 mb - 0.00 in0.0 mm 0.00 in0.0 mm
09:55 PM 23.0°F-5.0°C 21.3°F-5.9°C 93% 5.8 mph NW9.3 kmh NW 5.8 mph9.3 kmh 30.00 in1015.9 mb - 0.00 in0.0 mm 0.00 in0.0 mm
10:00 PM 22.6°F-5.2°C 19.4°F-7.0°C 87% 3.5 mph NNW5.6 kmh NNW 3.5 mph5.6 kmh 30.06 in1017.9 mb - 0.00 in0.0 mm 0.00 in0.0 mm
10:10 PM 22.2°F-5.4°C 20.5°F-6.4°C 93% 3.5 mph NNE5.6 kmh NNE 4.6 mph7.4 kmh 30.06 in1017.9 mb - 0.00 in0.0 mm 0.00 in0.0 mm
10:15 PM 22.1°F-5.5°C 19.4°F-7.0°C 89% 1.2 mph N1.9 kmh N 1.2 mph1.9 kmh 30.06 in1017.9 mb - 0.00 in0.0 mm 0.00 in0.0 mm
10:20 PM 21.9°F-5.6°C 19.4°F-7.0°C 90% 2.3 mph NNW3.7 kmh NNW 2.3 mph3.7 kmh 30.06 in1017.9 mb - 0.00 in0.0 mm 0.00 in0.0 mm
10:25 PM 21.9°F-5.6°C 17.5°F-8.1°C 83% 3.5 mph N5.6 kmh N 3.5 mph5.6 kmh 30.06 in1017.9 mb - 0.00 in0.0 mm 0.00 in0.0 mm
10:30 PM 21.9°F-5.6°C 17.5°F-8.1°C 83% 3.5 mph N5.6 kmh N 3.5 mph5.6 kmh 30.06 in1017.9 mb - 0.00 in0.0 mm 0.00 in0.0 mm
10:35 PM 21.7°F-5.7°C 8.4°F-13.1°C 56% 3.5 mph N5.6 kmh N 3.5 mph5.6 kmh 30.06 in1017.9 mb - 0.00 in0.0 mm 0.00 in0.0 mm
10:40 PM 21.6°F-5.8°C -13.4°F-25.2°C 20% 2.3 mph N3.7 kmh N 2.3 mph3.7 kmh 30.06 in1017.9 mb - 0.00 in0.0 mm 0.00 in0.0 mm
10:45 PM 21.4°F-5.9°C -13.5°F-25.3°C 20% 4.6 mph N7.4 kmh N 4.6 mph7.4 kmh 30.06 in1017.9 mb - 0.00 in0.0 mm 0.00 in0.0 mm
10:50 PM 21.4°F-5.9°C 17.6°F-8.0°C 85% 4.6 mph N7.4 kmh N 4.6 mph7.4 kmh 30.06 in1017.9 mb - 0.00 in0.0 mm 0.00 in0.0 mm
10:55 PM 21.2°F-6.0°C -2.2°F-19.0°C 35% 1.2 mph N1.9 kmh N 1.2 mph1.9 kmh 30.06 in1017.9 mb - 0.00 in0.0 mm 0.00 in0.0 mm
11:00 PM 21.0°F-6.1°C 15.2°F-9.3°C 78% 3.5 mph NNW5.6 kmh NNW 3.5 mph5.6 kmh 30.09 in1019.0 mb - 0.00 in0.0 mm 0.00 in0.0 mm
11:10 PM 20.8°F-6.2°C 17.6°F-8.0°C 87% 4.6 mph N7.4 kmh N 4.6 mph7.4 kmh 30.06 in1017.9 mb - 0.00 in0.0 mm 0.00 in0.0 mm
11:15 PM 20.7°F-6.3°C 17.7°F-7.9°C 88% 3.5 mph N5.6 kmh N 3.5 mph5.6 kmh 30.06 in1017.9 mb - 0.00 in0.0 mm 0.00 in0.0 mm
11:20 PM 20.5°F-6.4°C 17.5°F-8.1°C 88% 2.3 mph NE3.7 kmh NE 2.3 mph3.7 kmh 30.06 in1017.9 mb - 0.00 in0.0 mm 0.00 in0.0 mm
11:25 PM 20.4°F-6.4°C 17.4°F-8.1°C 88% 2.3 mph N3.7 kmh N 2.3 mph3.7 kmh 30.06 in1017.9 mb - 0.00 in0.0 mm 0.00 in0.0 mm
11:30 PM 20.3°F-6.5°C 17.6°F-8.0°C 89% 2.3 mph NNW3.7 kmh NNW 2.3 mph3.7 kmh 30.06 in1017.9 mb - 0.00 in0.0 mm 0.00 in0.0 mm
11:35 PM 20.1°F-6.6°C 15.8°F-9.0°C 83% 5.8 mph NNW9.3 kmh NNW 5.8 mph9.3 kmh 30.06 in1017.9 mb - 0.00 in0.0 mm 0.00 in0.0 mm
11:40 PM 19.6°F-6.9°C 14.7°F-9.6°C 81% 3.5 mph NNE5.6 kmh NNE 3.5 mph5.6 kmh 30.05 in1017.6 mb - 0.04 in1.0 mm 0.04 in1.0 mm
11:45 PM 19.6°F-6.9°C -4.3°F-20.2°C 34% 3.5 mph NNE5.6 kmh NNE 3.5 mph5.6 kmh 29.82 in1009.8 mb - 0.00 in0.0 mm 0.04 in1.0 mm
11:50 PM 19.0°F-7.2°C 15.8°F-9.0°C 87% 4.6 mph N7.4 kmh N 4.6 mph7.4 kmh 30.06 in1017.9 mb - 0.00 in0.0 mm 0.04 in1.0 mm
11:55 PM 18.9°F-7.3°C -3.7°F-19.8°C 36% 1.2 mph NW1.9 kmh NW 1.2 mph1.9 kmh 30.06 in1017.9 mb - 0.00 in0.0 mm 0.04 in1.0 mm